createdAt,value
2023-03-21T00:03:21.584Z,75.30
2023-03-21T00:13:23.220Z,75.90
2023-03-21T00:23:26.755Z,76.00
2023-03-21T00:33:28.815Z,76.20
2023-03-21T00:43:30.427Z,76.80
2023-03-21T00:53:32.080Z,77.20
2023-03-21T01:03:42.461Z,78.00
2023-03-21T01:13:53.735Z,78.60
2023-03-21T01:23:59.710Z,79.20
2023-03-21T01:34:01.346Z,80.00
2023-03-21T01:44:04.115Z,80.80
2023-03-21T01:54:08.060Z,81.50
2023-03-21T02:04:10.852Z,82.20
2023-03-21T02:14:28.466Z,82.90
2023-03-21T02:25:01.220Z,83.20
2023-03-21T02:35:39.103Z,85.20
2023-03-21T02:46:10.255Z,86.80
2023-03-21T02:56:12.464Z,87.70
2023-03-21T03:06:48.550Z,88.00
2023-03-21T03:17:40.061Z,88.10
2023-03-21T03:27:44.669Z,88.60
2023-03-21T03:37:51.310Z,89.40
2023-03-21T03:48:14.079Z,89.90
2023-03-21T03:58:23.610Z,90.30
2023-03-21T04:08:26.356Z,90.50
2023-03-21T04:18:28.065Z,90.70
2023-03-21T04:28:29.719Z,90.90
2023-03-21T04:38:31.387Z,91.10
2023-03-21T04:48:32.985Z,91.40
2023-03-21T04:58:34.685Z,91.50
2023-03-21T05:08:36.851Z,91.50
2023-03-21T05:18:38.719Z,91.60
2023-03-21T05:28:40.384Z,91.90
2023-03-21T05:38:45.515Z,92.00
2023-03-21T05:48:47.140Z,92.30
2023-03-21T05:58:48.749Z,92.60
2023-03-21T06:08:50.477Z,92.70
2023-03-21T06:18:52.129Z,92.80
2023-03-21T06:28:53.869Z,93.00
2023-03-21T06:38:55.464Z,93.10
2023-03-21T06:48:57.106Z,93.10
2023-03-21T06:58:58.880Z,93.00
2023-03-21T07:09:00.617Z,92.30
2023-03-21T07:19:02.230Z,92.10
2023-03-21T07:29:04.376Z,91.70
2023-03-21T07:39:06.323Z,91.10
2023-03-21T07:49:08.918Z,90.40
2023-03-21T07:59:10.770Z,89.20
2023-03-21T08:09:12.446Z,88.20
2023-03-21T08:19:14.119Z,86.10
2023-03-21T08:29:16.124Z,84.60
2023-03-21T08:39:17.860Z,83.10
2023-03-21T08:49:19.672Z,81.00
2023-03-21T08:59:21.439Z,78.60
2023-03-21T09:09:23.116Z,78.40
2023-03-21T09:19:25.719Z,76.40
2023-03-21T09:29:27.528Z,74.80
2023-03-21T09:42:30.856Z,73.40
2023-03-21T09:52:59.366Z,72.80
2023-03-21T10:03:06.776Z,71.50
2023-03-21T10:13:15.776Z,69.90
2023-03-21T10:23:20.913Z,69.30
2023-03-21T10:33:26.306Z,68.40
2023-03-21T10:46:36.007Z,67.80
2023-03-21T10:56:54.695Z,67.70
2023-03-21T11:07:02.295Z,66.30
2023-03-21T11:17:19.165Z,65.20
2023-03-21T11:27:21.168Z,64.30
2023-03-21T11:37:32.032Z,63.70
2023-03-21T11:47:33.651Z,63.70
2023-03-21T11:57:51.898Z,62.80
2023-03-21T12:08:20.764Z,62.90
2023-03-21T12:18:45.840Z,62.90
2023-03-21T12:28:50.863Z,63.00
2023-03-21T12:39:18.670Z,62.70
2023-03-21T12:49:29.120Z,62.70
2023-03-21T12:59:43.288Z,62.60
2023-03-21T13:09:44.992Z,61.40
2023-03-21T13:20:20.026Z,61.30
2023-03-21T13:34:13.807Z,61.50
2023-03-21T13:44:41.318Z,61.60
2023-03-21T13:54:55.966Z,61.90
2023-03-21T14:05:06.264Z,62.30
2023-03-21T14:15:31.117Z,63.40
2023-03-21T14:33:39.149Z,66.40
2023-03-21T14:43:43.556Z,70.20
2023-03-21T14:53:46.054Z,71.30
2023-03-21T15:03:51.474Z,76.30
2023-03-21T15:13:55.058Z,78.30
2023-03-21T15:24:03.873Z,82.10
2023-03-21T15:34:06.253Z,84.10
2023-03-21T15:44:15.041Z,85.10
2023-03-21T15:54:23.859Z,88.80
2023-03-21T16:04:26.561Z,90.20
2023-03-21T16:14:29.135Z,91.30
2023-03-21T16:24:30.715Z,91.40
2023-03-21T16:34:32.521Z,92.70
2023-03-21T16:44:35.678Z,93.30
2023-03-21T16:54:38.718Z,94.30
2023-03-21T17:04:40.516Z,95.00
2023-03-21T17:14:43.982Z,95.80
2023-03-21T17:24:48.471Z,96.60
2023-03-21T17:34:53.077Z,97.10
2023-03-21T17:44:54.668Z,97.50
2023-03-21T17:54:56.301Z,97.60
2023-03-21T18:04:58.025Z,98.30
2023-03-21T18:14:59.729Z,98.80
2023-03-21T18:25:01.341Z,99.20
2023-03-21T18:35:04.414Z,99.50
2023-03-21T18:45:08.311Z,99.80
2023-03-21T18:55:10.534Z,99.70
2023-03-21T19:05:12.407Z,99.90
2023-03-21T19:15:17.817Z,99.90
2023-03-21T19:25:19.579Z,99.90
2023-03-21T19:35:21.792Z,99.90
2023-03-21T19:45:23.628Z,99.90
2023-03-21T19:55:25.786Z,99.90
2023-03-21T20:05:28.398Z,99.90
2023-03-21T20:15:30.786Z,99.90
2023-03-21T20:25:33.649Z,99.90
2023-03-21T20:36:28.696Z,99.90
2023-03-21T20:46:03.781Z,99.90
2023-03-21T20:56:06.519Z,99.90
2023-03-21T21:06:14.775Z,99.90
2023-03-21T21:16:17.004Z,99.90
2023-03-21T21:26:18.806Z,99.90
2023-03-21T21:36:22.504Z,99.90
2023-03-21T21:46:24.183Z,99.90
2023-03-21T21:56:32.076Z,99.90
2023-03-21T22:06:34.583Z,99.90
2023-03-21T22:16:36.338Z,99.90
2023-03-21T22:26:39.464Z,99.90
2023-03-21T22:36:46.841Z,99.90
2023-03-21T22:46:48.450Z,99.90
2023-03-21T22:56:50.242Z,99.90
2023-03-21T23:06:51.883Z,99.90
2023-03-21T23:16:53.792Z,99.90
2023-03-21T23:26:55.460Z,99.90
2023-03-21T23:36:57.206Z,99.90
2023-03-21T23:46:58.833Z,99.90
2023-03-21T23:57:00.671Z,99.90
